Time;durP1;ratioP1;P1;durP2;ratioP2;P2;SDS_P1;SDS_P2;PMS_P1;PMS_P2;Temp;Humidity;BMP_temperature;BMP_pressure;BME280_temperature;BME280_humidity;BME280_pressure;Samples;Min_cycle;Max_cycle;Signal;HPM_P1;HPM_P2
2023/06/18 00:00:19;;;;;;;10.13;7.90;;;;;;;20.58;54.08;101388.78;4978202;28;20505;-80
2023/06/18 00:02:46;;;;;;;9.90;8.32;;;;;;;20.55;54.24;101387.06;4978752;28;20053;-80
2023/06/18 00:05:12;;;;;;;8.98;7.75;;;;;;;20.53;54.43;101381.41;4977663;28;20051;-79
2023/06/18 00:07:39;;;;;;;13.50;8.35;;;;;;;20.51;54.17;101380.44;4993342;28;20061;-80
2023/06/18 00:10:07;;;;;;;9.85;8.48;;;;;;;20.50;54.85;101381.66;4995036;28;20059;-80
2023/06/18 00:12:33;;;;;;;12.38;8.63;;;;;;;20.44;54.84;101384.38;4977643;28;20055;-79
2023/06/18 00:15:00;;;;;;;9.20;8.30;;;;;;;20.40;55.27;101372.31;4995194;28;20086;-79
2023/06/18 00:17:27;;;;;;;10.52;8.48;;;;;;;20.38;55.79;101380.22;4977694;28;20054;-78
2023/06/18 00:19:54;;;;;;;17.02;8.32;;;;;;;20.35;55.20;101387.31;4977095;28;20046;-80
2023/06/18 00:22:21;;;;;;;13.68;8.77;;;;;;;20.29;55.48;101378.47;4977668;28;20522;-81
2023/06/18 00:24:48;;;;;;;14.38;8.73;;;;;;;20.26;55.68;101382.88;5006706;28;20051;-80
2023/06/18 00:27:14;;;;;;;12.07;9.05;;;;;;;20.25;55.24;101384.09;5000879;28;20078;-80
2023/06/18 00:29:47;;;;;;;13.40;8.88;;;;;;;20.23;55.72;101375.00;4995825;28;20106;-80
2023/06/18 00:32:14;;;;;;;11.88;9.07;;;;;;;20.18;55.82;101373.78;4995652;28;20504;-80
2023/06/18 00:34:42;;;;;;;17.35;9.70;;;;;;;20.15;56.31;101380.16;4977161;28;20102;-81
2023/06/18 00:37:10;;;;;;;12.55;8.85;;;;;;;20.09;56.35;101379.41;4994578;28;20047;-81
2023/06/18 00:39:37;;;;;;;12.25;8.73;;;;;;;20.07;57.04;101381.13;4960756;28;20059;-80
2023/06/18 00:42:07;;;;;;;9.43;8.20;;;;;;;20.05;57.18;101373.50;4994517;28;20043;-80
2023/06/18 00:44:35;;;;;;;;;;;;;;;20.06;55.64;101366.88;4993681;28;20051;-80
2023/06/18 00:47:02;;;;;;;13.18;8.43;;;;;;;19.99;57.06;101373.50;4994769;28;19932;-81
2023/06/18 00:49:29;;;;;;;10.00;8.55;;;;;;;19.96;56.89;101363.69;4976494;28;20123;-81
2023/06/18 00:51:56;;;;;;;9.38;8.40;;;;;;;19.94;57.27;101365.41;4994492;28;20503;-80
2023/06/18 00:54:23;;;;;;;9.23;8.40;;;;;;;19.90;57.84;101364.91;4994639;28;20061;-81
2023/06/18 00:56:52;;;;;;;12.48;8.93;;;;;;;19.88;57.15;101364.66;4994687;28;20050;-81
2023/06/18 00:59:22;;;;;;;13.23;9.40;;;;;;;19.85;57.18;101358.28;4994367;28;20035;-81
2023/06/18 01:01:52;;;;;;;11.25;8.88;;;;;;;19.86;57.47;101353.59;4994443;28;20039;-81
2023/06/18 01:04:28;;;;;;;12.55;8.70;;;;;;;19.85;57.10;101357.53;4994034;28;20427;-81
2023/06/18 01:06:57;;;;;;;21.38;8.88;;;;;;;19.83;57.44;101349.19;4976429;28;20541;-81
2023/06/18 01:09:26;;;;;;;10.88;9.05;;;;;;;19.83;57.94;101341.09;4994002;28;20057;-81
2023/06/18 01:11:53;;;;;;;11.27;9.10;;;;;;;19.79;57.46;101357.53;4994125;28;20074;-81
2023/06/18 01:14:25;;;;;;;12.63;9.05;;;;;;;19.80;57.60;101352.84;4992805;28;20051;-81
2023/06/18 01:16:57;;;;;;;11.65;8.93;;;;;;;19.79;57.52;101351.38;4976643;28;20054;-81
2023/06/18 01:19:45;;;;;;;10.95;8.98;;;;;;;19.76;57.59;101350.41;4994394;28;20571;-80
2023/06/18 01:22:51;;;;;;;9.82;8.52;;;;;;;19.74;57.23;101347.44;4994249;28;20543;-80
2023/06/18 01:25:18;;;;;;;13.85;9.07;;;;;;;19.70;57.56;101349.66;4994019;28;20070;-80
2023/06/18 01:27:46;;;;;;;12.43;9.13;;;;;;;19.68;57.69;101352.09;4994146;28;20499;-81
2023/06/18 01:30:14;;;;;;;11.23;8.90;;;;;;;19.64;57.39;101349.63;4960348;28;20058;-81
2023/06/18 01:32:41;;;;;;;13.43;9.30;;;;;;;19.61;58.12;101356.00;4993516;28;20078;-80
2023/06/18 01:35:16;;;;;;;17.02;9.00;;;;;;;19.59;58.44;101355.75;4993850;28;20047;-80
2023/06/18 01:38:01;;;;;;;14.60;9.35;;;;;;;19.54;58.16;101344.97;4994063;28;20051;-81
2023/06/18 01:40:31;;;;;;;10.10;8.20;;;;;;;19.49;58.93;101343.69;4976083;28;20047;-80
2023/06/18 01:43:16;;;;;;;10.38;8.52;;;;;;;19.46;59.61;101346.63;4976030;28;20065;-80
2023/06/18 01:45:47;;;;;;;8.73;7.93;;;;;;;19.39;59.27;101345.13;4993856;28;20039;-81
2023/06/18 01:48:15;;;;;;;9.18;8.25;;;;;;;19.33;60.37;101338.97;4993253;28;20050;-81
2023/06/18 01:50:45;;;;;;;9.27;8.35;;;;;;;19.31;60.43;101346.81;4993869;28;20042;-80
2023/06/18 01:53:15;;;;;;;9.38;8.48;;;;;;;19.25;60.33;101346.03;4993620;28;20039;-81
2023/06/18 01:55:44;;;;;;;11.10;9.07;;;;;;;19.22;60.34;101339.66;4993497;28;20159;-80
2023/06/18 01:58:13;;;;;;;8.48;7.68;;;;;;;19.18;60.43;101339.16;4992250;28;20479;-80
2023/06/18 02:00:41;;;;;;;9.55;8.52;;;;;;;19.13;60.41;101333.75;4974117;28;20047;-81
2023/06/18 02:03:08;;;;;;;11.00;8.15;;;;;;;19.09;60.42;101335.94;4992563;28;20043;-81
2023/06/18 02:05:35;;;;;;;12.32;8.43;;;;;;;19.05;60.52;101332.72;4993643;28;20051;-81
2023/06/18 02:08:02;;;;;;;11.00;8.73;;;;;;;18.99;60.58;101338.81;4993032;28;20141;-79
2023/06/18 02:10:28;;;;;;;12.95;8.68;;;;;;;18.96;60.35;101334.41;4975831;28;20043;-80
2023/06/18 02:12:55;;;;;;;10.48;8.57;;;;;;;18.92;61.17;101331.19;4993541;28;20050;-80
2023/06/18 02:15:21;;;;;;;14.52;8.45;;;;;;;18.84;61.71;101324.75;4975297;28;20055;-79
2023/06/18 02:17:48;;;;;;;12.60;9.00;;;;;;;18.80;62.39;101324.25;4975920;28;20050;-79
2023/06/18 02:20:15;;;;;;;9.82;8.27;;;;;;;18.75;62.35;101319.59;4993503;28;20047;-80
2023/06/18 02:22:41;;;;;;;10.95;8.40;;;;;;;18.71;61.62;101315.63;4975771;28;20078;-79
2023/06/18 02:25:08;;;;;;;10.27;8.35;;;;;;;18.68;61.76;101311.94;4975537;28;20526;-80
2023/06/18 02:27:35;;;;;;;9.88;8.63;;;;;;;18.64;62.02;101316.81;4991504;28;20055;-79
2023/06/18 02:30:03;;;;;;;13.05;8.57;;;;;;;18.61;61.97;101309.69;4974793;28;20047;-80
2023/06/18 02:32:31;;;;;;;32.95;9.02;;;;;;;18.57;62.56;101314.53;4993004;28;20125;-80
2023/06/18 02:34:58;;;;;;;9.35;8.45;;;;;;;18.54;62.63;101318.19;4975275;28;20062;-79
2023/06/18 02:37:25;;;;;;;9.18;8.25;;;;;;;18.52;62.27;101326.03;4991481;28;20078;-79
2023/06/18 02:39:52;;;;;;;11.27;8.02;;;;;;;18.49;62.97;101321.59;4959194;28;20405;-79
2023/06/18 02:42:20;;;;;;;9.70;8.45;;;;;;;18.45;63.36;101321.06;4993000;28;20039;-79
2023/06/18 02:44:48;;;;;;;11.27;8.15;;;;;;;18.38;64.09;101318.84;4992760;28;20047;-79
2023/06/18 02:47:15;;;;;;;8.75;7.85;;;;;;;18.32;65.03;101314.13;4993011;28;20049;-80
2023/06/18 02:49:41;;;;;;;8.70;7.95;;;;;;;18.28;65.11;101319.00;4993094;28;20058;-80
2023/06/18 02:52:07;;;;;;;8.52;7.72;;;;;;;18.25;65.28;101314.56;4991263;28;20049;-80
2023/06/18 02:54:34;;;;;;;10.90;7.88;;;;;;;18.21;66.02;101307.91;4974918;28;20138;-81
2023/06/18 02:57:00;;;;;;;8.43;7.65;;;;;;;18.14;66.29;101309.09;4975229;28;20047;-80
2023/06/18 02:59:27;;;;;;;8.93;7.85;;;;;;;18.09;66.43;101304.38;4974594;28;20047;-80
2023/06/18 03:01:54;;;;;;;9.20;7.78;;;;;;;18.08;65.60;101302.16;4974903;28;20058;-80
2023/06/18 03:04:21;;;;;;;9.05;8.20;;;;;;;18.04;66.68;101301.66;4975077;28;20102;-80
2023/06/18 03:06:47;;;;;;;8.75;7.95;;;;;;;17.99;66.80;101303.81;4975018;28;20086;-80
2023/06/18 03:09:14;;;;;;;9.40;8.00;;;;;;;17.95;66.75;101297.19;4974679;28;20055;-79
2023/06/18 03:11:41;;;;;;;9.63;8.70;;;;;;;17.93;67.47;101296.94;4958808;28;20047;-80
2023/06/18 03:14:09;;;;;;;8.82;7.78;;;;;;;17.84;68.52;101297.81;4990461;28;20047;-80
2023/06/18 03:16:36;;;;;;;11.05;8.00;;;;;;;17.79;68.65;101295.81;4974780;28;20098;-80
2023/06/18 03:19:04;;;;;;;9.38;7.75;;;;;;;17.79;68.31;101293.13;4992476;28;20039;-79
2023/06/18 03:21:33;;;;;;;10.68;8.32;;;;;;;17.76;68.47;101296.75;4974642;28;20069;-80
2023/06/18 03:24:02;;;;;;;8.30;7.55;;;;;;;17.72;69.76;101298.94;4974056;28;20058;-79
2023/06/18 03:26:29;;;;;;;10.45;7.95;;;;;;;17.71;68.38;101300.13;4992169;28;20480;-80
2023/06/18 03:28:56;;;;;;;8.82;7.97;;;;;;;17.66;69.12;101301.56;4974046;28;20130;-80
2023/06/18 03:31:24;;;;;;;10.88;7.95;;;;;;;17.61;69.48;101299.53;4974402;28;20054;-79
2023/06/18 03:33:52;;;;;;;9.00;8.20;;;;;;;17.58;68.74;101300.50;4974606;28;20082;-79
2023/06/18 03:36:20;;;;;;;9.00;8.23;;;;;;;17.57;69.47;101304.41;4974393;28;20487;-80
2023/06/18 03:38:48;;;;;;;12.15;7.95;;;;;;;17.55;68.83;101311.47;4974588;28;20058;-80
2023/06/18 03:41:14;;;;;;;9.15;8.25;;;;;;;17.54;69.82;101301.91;4992360;28;20046;-80
2023/06/18 03:43:41;;;;;;;9.60;8.27;;;;;;;17.50;69.89;101307.50;4958125;28;20092;-79
2023/06/18 03:46:08;;;;;;;9.25;8.32;;;;;;;17.45;70.38;101305.50;4974878;28;20381;-79
2023/06/18 03:48:36;;;;;;;8.68;7.85;;;;;;;17.47;69.02;101310.41;4990723;28;20121;-79
2023/06/18 03:51:04;;;;;;;8.95;8.15;;;;;;;17.50;69.31;101307.50;4990558;28;20530;-80
2023/06/18 03:53:36;;;;;;;9.20;8.10;;;;;;;17.50;70.62;101310.19;4974293;28;20050;-80
2023/06/18 03:56:04;;;;;;;8.57;7.78;;;;;;;17.51;70.23;101302.88;4974433;28;20579;-79
2023/06/18 03:58:30;;;;;;;8.65;7.75;;;;;;;17.53;70.61;101305.81;4973938;28;20058;-79
2023/06/18 04:00:57;;;;;;;12.05;8.95;;;;;;;17.52;71.03;101310.47;4974209;28;20066;-80
2023/06/18 04:03:24;;;;;;;12.90;8.15;;;;;;;17.52;70.81;101309.72;4974310;28;20051;-80
2023/06/18 04:05:52;;;;;;;9.02;8.23;;;;;;;17.56;70.68;101308.31;4974195;28;20439;-80
2023/06/18 04:08:19;;;;;;;9.68;7.95;;;;;;;17.60;70.94;101314.19;4973826;28;20047;-80
2023/06/18 04:10:47;;;;;;;8.68;7.78;;;;;;;17.66;70.83;101308.91;4974570;28;20086;-80
2023/06/18 04:13:18;;;;;;;9.10;8.20;;;;;;;17.70;71.17;101304.03;4973803;28;20495;-80
2023/06/18 04:15:45;;;;;;;8.90;8.10;;;;;;;17.76;71.27;101312.19;4974504;28;20476;-80
2023/06/18 04:18:14;;;;;;;11.38;8.13;;;;;;;17.76;71.00;101317.56;4973945;28;20496;-79
2023/06/18 04:20:40;;;;;;;13.10;8.48;;;;;;;17.80;70.63;101318.09;4974024;28;20054;-79
2023/06/18 04:23:08;;;;;;;9.57;8.50;;;;;;;17.80;70.51;101324.22;4974073;28;20054;-80
2023/06/18 04:25:36;;;;;;;9.95;8.60;;;;;;;17.83;70.09;101322.53;4993046;28;20047;-80
2023/06/18 04:28:02;;;;;;;11.52;8.23;;;;;;;17.81;69.57;101325.69;4977252;28;20575;-79
2023/06/18 04:30:29;;;;;;;9.98;8.68;;;;;;;17.80;69.59;101324.22;4977117;28;20058;-80
2023/06/18 04:32:57;;;;;;;11.57;8.63;;;;;;;17.88;69.63;101327.25;4993513;28;20051;-80
2023/06/18 04:35:23;;;;;;;10.35;8.02;;;;;;;17.96;69.75;101320.97;4977370;28;20046;-79
2023/06/18 04:37:50;;;;;;;10.32;8.85;;;;;;;18.04;70.00;101328.59;4993321;28;20043;-79
2023/06/18 04:40:18;;;;;;;12.23;8.63;;;;;;;18.10;69.62;101332.81;4976871;28;20050;-80
2023/06/18 04:42:46;;;;;;;9.90;8.68;;;;;;;18.19;69.42;101335.34;4977659;28;20105;-80
2023/06/18 04:45:19;;;;;;;14.32;9.15;;;;;;;18.21;69.41;101324.81;4976875;28;20082;-79
2023/06/18 04:47:46;;;;;;;15.35;9.15;;;;;;;18.24;67.18;101328.53;4977601;28;20158;-80
2023/06/18 04:50:14;;;;;;;12.10;9.40;;;;;;;18.31;67.13;101333.47;4977168;28;20054;-80
2023/06/18 04:52:45;;;;;;;11.43;9.40;;;;;;;18.36;66.31;101329.34;4977336;28;20054;-80
2023/06/18 04:55:12;;;;;;;10.98;9.55;;;;;;;18.42;66.72;101330.09;4976631;28;20252;-80
2023/06/18 04:57:40;;;;;;;11.45;9.65;;;;;;;18.43;65.52;101324.25;4976983;28;20051;-80
2023/06/18 05:00:08;;;;;;;11.00;8.80;;;;;;;18.50;66.09;101325.75;4976821;28;20101;-80
2023/06/18 05:02:37;;;;;;;13.23;9.40;;;;;;;18.53;65.02;101324.81;4977061;28;20144;-80
2023/06/18 05:05:04;;;;;;;9.88;9.07;;;;;;;18.59;65.38;101330.97;4976760;28;20047;-80
2023/06/18 05:07:31;;;;;;;14.85;9.60;;;;;;;18.98;65.36;101331.22;4994432;28;20491;-80
2023/06/18 05:09:58;;;;;;;17.60;9.40;;;;;;;19.60;62.44;101334.88;4993722;28;20098;-80
2023/06/18 05:12:25;;;;;;;15.02;9.25;;;;;;;19.97;61.43;101334.72;4976237;28;20133;-80
2023/06/18 05:14:52;;;;;;;16.15;9.32;;;;;;;20.59;59.24;101335.44;4994369;28;20100;-80
2023/06/18 05:17:21;;;;;;;13.05;9.45;;;;;;;20.66;58.90;101334.19;4976700;28;20182;-80
2023/06/18 05:19:48;;;;;;;16.42;9.20;;;;;;;20.98;58.10;101329.91;4976858;28;20093;-80
2023/06/18 05:22:15;;;;;;;12.23;9.15;;;;;;;21.16;57.63;101325.91;4960600;28;20106;-80
2023/06/18 05:24:42;;;;;;;17.00;9.98;;;;;;;21.37;56.56;101329.03;4976012;28;20054;-80
2023/06/18 05:27:08;;;;;;;13.25;9.50;;;;;;;21.58;57.03;101319.31;4976204;28;20492;-80
2023/06/18 05:29:36;;;;;;;10.52;9.27;;;;;;;21.74;56.03;101318.47;4976311;28;20487;-80
2023/06/18 05:32:03;;;;;;;19.90;9.63;;;;;;;22.16;55.00;101322.59;4994117;28;20588;-80
2023/06/18 05:34:30;;;;;;;19.63;10.88;;;;;;;22.33;54.03;101329.84;4976182;28;20183;-80
2023/06/18 05:36:57;;;;;;;19.73;10.15;;;;;;;22.53;53.04;101332.84;4994579;28;20053;-80
2023/06/18 05:39:24;;;;;;;11.45;10.30;;;;;;;22.92;51.95;101326.28;4991268;28;20548;-79
2023/06/18 05:41:51;;;;;;;10.88;9.77;;;;;;;23.13;51.72;101334.69;4974898;28;20050;-80
2023/06/18 05:44:19;;;;;;;18.33;10.13;;;;;;;22.90;51.95;101336.91;4974397;28;20050;-81
2023/06/18 05:46:46;;;;;;;11.82;10.35;;;;;;;22.91;52.90;101343.81;4991350;28;20488;-81
2023/06/18 05:49:13;;;;;;;10.80;9.82;;;;;;;23.11;51.67;101343.34;4975502;28;20129;-79
2023/06/18 05:51:40;;;;;;;12.57;10.27;;;;;;;22.65;52.54;101343.59;4994265;28;20042;-82
2023/06/18 05:54:07;;;;;;;19.45;10.75;;;;;;;22.18;53.96;101343.78;4992555;28;20047;-83
2023/06/18 05:56:33;;;;;;;14.73;10.60;;;;;;;21.85;55.32;101350.91;4994174;28;20053;-80
2023/06/18 05:59:00;;;;;;;16.10;10.05;;;;;;;21.87;55.46;101350.41;4994413;28;20572;-76
2023/06/18 06:01:33;;;;;;;14.25;10.20;;;;;;;22.21;55.97;101345.47;4976494;28;20565;-78
2023/06/18 06:04:01;;;;;;;17.25;10.48;;;;;;;22.75;54.70;101350.88;4992995;28;20047;-78
2023/06/18 06:06:28;;;;;;;15.07;10.02;;;;;;;22.76;54.27;101348.91;4976212;28;20053;-79
2023/06/18 06:08:55;;;;;;;13.25;10.30;;;;;;;22.48;54.86;101349.19;4991884;28;20595;-83
2023/06/18 06:11:22;;;;;;;17.95;10.32;;;;;;;22.34;55.39;101344.88;4976058;28;20126;-81
2023/06/18 06:13:49;;;;;;;14.30;10.43;;;;;;;22.25;55.38;101343.22;4992761;28;20051;-82
2023/06/18 06:16:16;;;;;;;15.25;10.25;;;;;;;22.24;55.80;101341.75;4992481;28;20058;-79
2023/06/18 06:18:42;;;;;;;14.23;10.23;;;;;;;22.18;55.96;101344.50;5005707;28;20125;-81
2023/06/18 06:21:12;;;;;;;15.57;10.40;;;;;;;22.37;55.92;101346.59;4976314;28;20050;-80
2023/06/18 06:23:38;;;;;;;15.18;10.23;;;;;;;22.67;54.71;101339.13;4975575;28;20051;-81
2023/06/18 06:26:05;;;;;;;14.85;10.38;;;;;;;22.91;53.91;101338.38;4976186;28;20518;-80
2023/06/18 06:28:31;;;;;;;12.95;10.30;;;;;;;23.05;53.92;101341.94;4993652;28;20055;-81
2023/06/18 06:30:58;;;;;;;11.65;10.40;;;;;;;23.26;54.55;101348.31;4993773;28;20050;-79
2023/06/18 06:33:25;;;;;;;11.57;10.32;;;;;;;23.54;53.63;101337.88;4975715;28;20058;-81
2023/06/18 06:35:52;;;;;;;13.02;11.25;;;;;;;23.62;51.93;101346.13;4975891;28;20050;-81
2023/06/18 06:38:20;;;;;;;11.70;10.32;;;;;;;23.69;51.74;101345.53;4975540;28;20154;-79
2023/06/18 06:40:47;;;;;;;13.55;10.65;;;;;;;23.94;51.90;101343.44;4976126;28;20051;-79
2023/06/18 06:43:13;;;;;;;13.40;10.40;;;;;;;24.08;52.01;101338.75;4993743;28;20129;-79
2023/06/18 06:46:06;;;;;;;13.57;10.38;;;;;;;24.12;50.88;101341.91;4992596;28;20051;-79
2023/06/18 06:48:51;;;;;;;14.63;11.10;;;;;;;24.38;50.18;101341.25;4991688;28;20063;-77
2023/06/18 06:51:48;;;;;;;12.68;10.85;;;;;;;24.45;49.03;101337.91;5008157;28;20526;-76
2023/06/18 06:54:15;;;;;;;15.07;11.00;;;;;;;24.17;49.50;101344.53;4975580;28;20114;-76
2023/06/18 06:56:41;;;;;;;14.10;10.70;;;;;;;24.20;50.22;101348.19;4992912;28;20130;-76
2023/06/18 06:59:08;;;;;;;14.35;10.30;;;;;;;24.17;49.46;101347.25;4975814;28;20078;-77
2023/06/18 07:01:35;;;;;;;13.90;10.45;;;;;;;24.17;48.44;101352.69;4991964;28;20070;-77
2023/06/18 07:04:03;;;;;;;13.93;10.93;;;;;;;24.17;49.63;101349.97;4975873;28;20161;-77
2023/06/18 07:06:30;;;;;;;16.63;10.15;;;;;;;24.27;48.90;101355.78;4992568;28;20202;-77
2023/06/18 07:08:57;;;;;;;10.57;9.60;;;;;;;24.27;48.40;101358.50;4974668;28;20145;-77
2023/06/18 07:11:24;;;;;;;12.38;10.88;;;;;;;24.19;48.45;101352.91;4993007;28;20125;-76
2023/06/18 07:13:51;;;;;;;10.77;9.77;;;;;;;24.20;48.38;101354.38;4993086;28;20050;-76
2023/06/18 07:16:17;;;;;;;11.93;10.27;;;;;;;24.15;47.39;101357.91;4993311;28;20066;-77
2023/06/18 07:18:44;;;;;;;18.95;10.48;;;;;;;24.17;47.25;101355.41;4975337;28;20140;-77
2023/06/18 07:21:11;;;;;;;12.00;9.75;;;;;;;24.31;46.58;101360.91;4991345;28;20053;-76
2023/06/18 07:23:37;;;;;;;13.00;9.75;;;;;;;24.38;46.88;101360.31;4992702;28;20674;-76
2023/06/18 07:26:04;;;;;;;18.48;10.40;;;;;;;24.44;46.46;101361.66;4974787;28;20130;-77
2023/06/18 07:28:30;;;;;;;11.60;8.90;;;;;;;24.62;46.04;101370.25;4991722;28;20050;-77
2023/06/18 07:30:57;;;;;;;10.23;9.18;;;;;;;24.58;46.23;101386.91;4992872;28;20075;-76
2023/06/18 07:33:23;;;;;;;13.73;9.52;;;;;;;24.48;47.66;101400.19;4992439;28;20042;-77
2023/06/18 07:35:50;;;;;;;9.85;8.90;;;;;;;24.34;49.21;101395.25;4992328;28;20143;-77
2023/06/18 07:38:16;;;;;;;14.77;8.98;;;;;;;24.22;46.69;101370.91;4975274;28;20043;-78
2023/06/18 07:40:43;;;;;;;10.75;9.45;;;;;;;24.15;45.38;101368.06;4992536;28;20051;-77
2023/06/18 07:43:10;;;;;;;11.82;8.63;;;;;;;24.08;44.81;101380.28;4992425;28;20047;-76
2023/06/18 07:45:38;;;;;;;9.85;8.18;;;;;;;24.01;46.48;101388.31;4974608;28;20050;-76
2023/06/18 07:48:05;;;;;;;16.92;9.18;;;;;;;23.92;46.56;101379.31;4992398;28;20047;-77
2023/06/18 07:50:32;;;;;;;9.68;8.68;;;;;;;23.91;46.57;101377.09;4974795;28;20134;-77
2023/06/18 07:52:58;;;;;;;12.88;8.60;;;;;;;23.96;47.19;101370.84;4992067;28;20516;-76
2023/06/18 07:55:25;;;;;;;12.98;9.05;;;;;;;24.01;46.18;101375.44;4992198;28;20118;-77
2023/06/18 07:57:51;;;;;;;9.45;8.30;;;;;;;24.17;47.48;101381.88;4975055;28;20552;-78
2023/06/18 08:00:18;;;;;;;11.73;9.55;;;;;;;24.21;45.74;101363.28;4977899;28;20094;-78
2023/06/18 08:02:46;;;;;;;13.05;9.90;;;;;;;24.20;45.90;101367.25;4994528;28;20448;-77
2023/06/18 08:05:13;;;;;;;13.02;9.80;;;;;;;24.39;45.53;101375.38;4977361;28;20058;-77
2023/06/18 08:07:39;;;;;;;14.23;10.13;;;;;;;24.31;45.00;101367.09;4995417;28;20077;-76
2023/06/18 08:10:06;;;;;;;16.38;10.02;;;;;;;24.29;45.98;101372.31;4995612;28;20543;-77
2023/06/18 08:12:33;;;;;;;10.55;9.65;;;;;;;24.44;46.50;101377.25;4995462;28;20050;-78
2023/06/18 08:14:59;;;;;;;11.50;9.48;;;;;;;24.53;46.59;101358.53;4995689;28;20508;-78
2023/06/18 08:17:26;;;;;;;15.57;10.80;;;;;;;24.71;45.69;101361.69;4994809;28;20445;-78
2023/06/18 08:19:52;;;;;;;14.95;10.20;;;;;;;24.77;45.37;101365.03;4995765;28;20085;-77
2023/06/18 08:22:19;;;;;;;10.73;9.45;;;;;;;24.85;45.13;101360.41;4995492;28;20130;-77
2023/06/18 08:24:46;;;;;;;11.05;10.05;;;;;;;24.88;43.73;101357.38;4977960;28;20047;-77
2023/06/18 08:27:12;;;;;;;18.33;10.35;;;;;;;24.96;44.50;101360.22;4995707;28;20050;-77
2023/06/18 08:29:39;;;;;;;11.73;10.55;;;;;;;24.93;43.70;101351.09;4995363;28;20494;-76
2023/06/18 08:32:06;;;;;;;19.90;10.02;;;;;;;24.93;43.38;101351.09;4995092;28;20049;-75
2023/06/18 08:34:33;;;;;;;20.58;10.10;;;;;;;25.02;43.52;101351.94;4995341;28;20081;-75
2023/06/18 08:37:00;;;;;;;11.07;10.07;;;;;;;25.07;43.35;101349.09;4978126;28;20042;-75
2023/06/18 08:39:26;;;;;;;13.00;9.40;;;;;;;25.23;43.49;101348.00;4995239;28;20479;-75
2023/06/18 08:41:54;;;;;;;10.10;8.98;;;;;;;25.43;43.85;101345.88;4995538;28;20038;-75
2023/06/18 08:44:23;;;;;;;15.10;9.80;;;;;;;25.62;42.29;101340.97;4994885;28;20051;-75
2023/06/18 08:46:51;;;;;;;10.48;9.57;;;;;;;25.67;42.80;101339.41;4994745;28;20070;-74
2023/06/18 08:49:19;;;;;;;10.43;9.27;;;;;;;25.64;42.30;101332.28;4994968;28;20051;-75
2023/06/18 08:51:48;;;;;;;12.77;9.82;;;;;;;25.62;42.11;101337.50;4995243;28;20065;-75
2023/06/18 08:54:18;;;;;;;11.38;9.57;;;;;;;25.58;41.10;101341.31;4995011;28;20057;-75
2023/06/18 08:56:47;;;;;;;10.02;9.20;;;;;;;25.63;41.37;101336.97;4995005;28;20047;-76
2023/06/18 08:59:14;;;;;;;91.03;73.78;;;;;;;25.63;40.87;101334.25;4993925;28;20047;-76
2023/06/18 09:01:45;;;;;;;16.25;10.43;;;;;;;25.67;42.23;101333.94;4976564;28;20086;-75
2023/06/18 09:04:14;;;;;;;12.43;8.90;;;;;;;25.79;40.62;101335.88;4993747;28;20054;-75
2023/06/18 09:06:42;;;;;;;19.02;8.85;;;;;;;25.83;42.27;101330.84;4977350;28;20565;-75
2023/06/18 09:09:11;;;;;;;9.30;7.97;;;;;;;25.88;41.46;101340.16;4976097;28;20166;-75
2023/06/18 09:11:38;;;;;;;10.73;8.15;;;;;;;25.90;43.56;101332.91;4994897;28;20082;-75
2023/06/18 09:14:04;;;;;;;8.73;7.47;;;;;;;25.99;42.00;101342.63;4993847;28;20121;-75
2023/06/18 09:16:31;;;;;;;12.02;9.90;;;;;;;26.04;41.11;101338.25;4992510;28;20058;-74
2023/06/18 09:18:59;;;;;;;8.35;7.47;;;;;;;26.01;39.75;101337.34;4993294;28;20058;-74
2023/06/18 09:21:36;;;;;;;8.23;7.35;;;;;;;26.17;41.47;101338.19;4993965;28;20050;-75
2023/06/18 09:24:06;;;;;;;10.20;7.43;;;;;;;26.27;39.63;101341.19;4995236;28;20121;-76
2023/06/18 09:26:34;;;;;;;11.82;7.65;;;;;;;26.31;39.78;101341.59;4994651;28;20047;-74
2023/06/18 09:29:09;;;;;;;12.13;7.80;;;;;;;26.41;39.55;101348.00;4994722;28;20047;-74
2023/06/18 09:31:38;;;;;;;7.95;7.03;;;;;;;26.41;38.12;101339.81;4994090;28;20050;-74
2023/06/18 09:34:11;;;;;;;8.55;7.30;;;;;;;26.43;39.12;101338.03;4994870;28;20571;-76
2023/06/18 09:36:40;;;;;;;7.70;7.10;;;;;;;26.57;38.49;101330.47;4994740;28;20389;-76
2023/06/18 09:39:21;;;;;;;10.27;7.82;;;;;;;26.67;39.22;101336.91;4994930;28;20042;-76
2023/06/18 09:41:52;;;;;;;11.10;7.55;;;;;;;26.65;37.76;101325.06;4994105;28;20051;-75
2023/06/18 09:44:19;;;;;;;9.45;7.35;;;;;;;26.84;37.99;101317.28;4994910;28;20531;-75
2023/06/18 09:46:57;;;;;;;7.85;7.15;;;;;;;26.99;38.47;101324.88;4994784;28;20122;-76
2023/06/18 09:49:25;;;;;;;8.52;7.50;;;;;;;27.06;38.86;101324.16;4994321;28;20516;-75
2023/06/18 09:51:53;;;;;;;7.85;7.03;;;;;;;27.18;38.59;101319.84;4993395;28;20483;-76
2023/06/18 09:54:21;;;;;;;8.93;7.75;;;;;;;27.11;38.29;101323.28;4992817;28;20047;-76
2023/06/18 09:57:09;;;;;;;8.27;7.30;;;;;;;27.26;37.19;101317.84;4977669;28;20051;-77
2023/06/18 09:59:36;;;;;;;11.30;7.43;;;;;;;27.36;36.89;101318.03;4993900;28;20535;-76
2023/06/18 10:02:04;;;;;;;8.10;7.30;;;;;;;27.71;36.21;101322.66;4992910;28;20146;-76
2023/06/18 10:04:34;;;;;;;7.97;7.28;;;;;;;27.86;36.58;101324.69;4994285;28;20542;-75
2023/06/18 10:07:05;;;;;;;8.10;7.32;;;;;;;27.81;35.36;101320.13;4994258;28;20049;-75
2023/06/18 10:09:32;;;;;;;;;;;;;;;28.02;37.61;101320.66;4994081;28;20059;-75
2023/06/18 10:12:01;;;;;;;7.65;6.95;;;;;;;27.89;36.78;101316.13;4994552;28;19925;-74
2023/06/18 10:14:29;;;;;;;8.05;7.32;;;;;;;28.02;36.57;101323.38;4993535;28;20494;-73
2023/06/18 10:17:05;;;;;;;7.82;6.90;;;;;;;28.10;36.16;101317.91;4993988;28;20977;-75
2023/06/18 10:19:38;;;;;;;7.60;6.90;;;;;;;27.93;34.99;101318.50;4976724;28;20047;-75
2023/06/18 10:22:07;;;;;;;8.30;7.45;;;;;;;27.99;35.96;101321.75;4993542;28;20456;-75
2023/06/18 10:24:42;;;;;;;8.10;7.43;;;;;;;28.07;35.48;101319.00;4994171;28;20522;-75
2023/06/18 10:27:08;;;;;;;8.18;7.32;;;;;;;28.06;35.16;101312.81;4992906;28;20125;-76
2023/06/18 10:29:35;;;;;;;7.25;6.80;;;;;;;27.89;36.29;101312.66;4993380;28;20055;-76
2023/06/18 10:32:03;;;;;;;8.32;7.50;;;;;;;27.87;34.98;101309.72;4994075;28;20047;-77
2023/06/18 10:34:31;;;;;;;7.90;7.22;;;;;;;27.62;35.70;101317.00;4993557;28;20576;-77
2023/06/18 10:37:00;;;;;;;11.68;7.72;;;;;;;27.54;35.72;101309.50;4993933;28;20070;-77
2023/06/18 10:39:28;;;;;;;10.65;6.90;;;;;;;27.56;37.66;101306.97;4993435;28;20535;-77
2023/06/18 10:42:00;;;;;;;8.32;7.63;;;;;;;27.60;37.25;101305.88;4993807;28;20053;-76
2023/06/18 10:44:33;;;;;;;9.88;7.65;;;;;;;27.70;35.95;101302.06;4993247;28;20051;-77
2023/06/18 10:47:19;;;;;;;14.40;7.22;;;;;;;27.70;37.12;101291.13;4993732;28;20039;-77
2023/06/18 10:50:08;;;;;;;11.38;7.30;;;;;;;27.70;36.66;101293.84;4993570;28;20199;-77
2023/06/18 10:52:41;;;;;;;8.05;7.43;;;;;;;27.55;36.40;101286.38;4993306;28;20058;-78
2023/06/18 10:55:20;;;;;;;8.13;7.10;;;;;;;27.51;36.45;101291.47;4993643;28;20043;-78
2023/06/18 10:57:49;;;;;;;10.95;7.78;;;;;;;27.35;36.75;101295.44;4993204;28;20125;-80
2023/06/18 11:00:18;;;;;;;9.13;6.72;;;;;;;27.30;37.38;101295.63;4993252;28;20054;-78
2023/06/18 11:02:57;;;;;;;7.80;7.20;;;;;;;27.24;37.06;101299.25;4992804;28;20047;-76
2023/06/18 11:05:32;;;;;;;8.27;7.68;;;;;;;27.36;38.37;101291.44;4993530;28;20042;-76
2023/06/18 11:08:04;;;;;;;8.68;7.93;;;;;;;27.24;39.21;101295.78;4993514;28;20074;-76
2023/06/18 11:10:36;;;;;;;11.95;8.02;;;;;;;27.19;39.46;101299.44;4993165;28;20054;-76
2023/06/18 11:13:04;;;;;;;8.10;7.30;;;;;;;27.15;40.51;101302.53;4993249;28;20045;-77
2023/06/18 11:15:31;;;;;;;9.38;8.45;;;;;;;27.15;39.25;101299.78;4992988;28;20047;-77
2023/06/18 11:18:01;;;;;;;11.05;8.68;;;;;;;26.98;39.63;101290.63;4993495;28;20078;-77
2023/06/18 11:20:33;;;;;;;15.47;8.20;;;;;;;26.85;40.46;101289.44;4993465;28;20051;-77
2023/06/18 11:23:01;;;;;;;13.70;8.90;;;;;;;26.73;40.38;101288.31;4993528;28;20050;-76
2023/06/18 11:25:29;;;;;;;11.65;8.75;;;;;;;26.61;41.00;101286.44;4993173;28;20046;-77